Time;durP1;ratioP1;P1;durP2;ratioP2;P2;SDS_P1;SDS_P2;PMS_P1;PMS_P2;Temp;Humidity;BMP_temperature;BMP_pressure;BME280_temperature;BME280_humidity;BME280_pressure;Samples;Min_cycle;Max_cycle;Signal;HPM_P1;HPM_P2
2021/10/08 00:01:39;;;;;;;6.57;3.28;;;;;;;;;;5031173;28;20154;-61
2021/10/08 00:04:05;;;;;;;6.82;3.60;;;;;;;;;;5029969;28;20034;-60
2021/10/08 00:06:31;;;;;;;5.10;3.13;;;;;;;;;;5020339;28;20030;-60
2021/10/08 00:08:57;;;;;;;8.48;3.80;;;;;;;;;;5011593;28;20477;-60
2021/10/08 00:11:24;;;;;;;4.15;3.08;;;;;;;;;;5079860;28;20033;-60
2021/10/08 00:13:50;;;;;;;6.07;3.33;;;;;;;;;;5011831;28;20048;-60
2021/10/08 00:16:16;;;;;;;4.72;3.30;;;;;;;;;;5011640;28;20033;-60
2021/10/08 00:18:42;;;;;;;5.40;3.17;;;;;;;;;;5011716;27;20029;-60
2021/10/08 00:21:08;;;;;;;10.60;3.53;;;;;;;;;;5011285;28;20082;-60
2021/10/08 00:23:34;;;;;;;3.38;2.90;;;;;;;;;;5011773;28;20160;-60
2021/10/08 00:26:00;;;;;;;7.10;3.38;;;;;;;;;;5011630;28;20030;-60
2021/10/08 00:28:26;;;;;;;4.88;3.05;;;;;;;;;;5011522;28;20044;-59
2021/10/08 00:30:52;;;;;;;6.00;3.30;;;;;;;;;;5011040;28;20029;-59
2021/10/08 00:33:18;;;;;;;3.40;3.10;;;;;;;;;;5011391;28;20481;-60
2021/10/08 00:35:44;;;;;;;7.97;2.92;;;;;;;;;;5010894;28;20037;-59
2021/10/08 00:38:11;;;;;;;3.67;3.03;;;;;;;;;;5011352;28;20063;-60
2021/10/08 00:40:39;;;;;;;7.75;2.85;;;;;;;;;;5011550;28;20041;-60
2021/10/08 00:43:05;;;;;;;3.75;3.10;;;;;;;;;;5011630;28;20037;-59
2021/10/08 00:45:31;;;;;;;4.85;3.20;;;;;;;;;;5011163;28;20461;-60
2021/10/08 00:48:02;;;;;;;4.50;3.05;;;;;;;;;;5011362;28;20094;-60
2021/10/08 00:50:28;;;;;;;5.15;3.10;;;;;;;;;;5011476;28;20032;-60
2021/10/08 00:52:54;;;;;;;5.53;3.20;;;;;;;;;;5034148;27;20029;-60
2021/10/08 00:55:21;;;;;;;5.43;3.10;;;;;;;;;;5030831;28;20029;-60
2021/10/08 00:57:47;;;;;;;7.28;3.50;;;;;;;;;;5030769;28;20018;-60
2021/10/08 01:00:14;;;;;;;3.08;2.63;;;;;;;;;;5031061;28;20104;-60
2021/10/08 01:02:40;;;;;;;3.65;2.60;;;;;;;;;;5030669;28;20493;-61
2021/10/08 01:05:06;;;;;;;6.13;3.40;;;;;;;;;;5031059;28;20029;-60
2021/10/08 01:07:32;;;;;;;9.20;3.88;;;;;;;;;;5012109;28;20034;-60
2021/10/08 01:09:58;;;;;;;4.82;3.03;;;;;;;;;;5027315;28;20428;-60
2021/10/08 01:12:24;;;;;;;5.60;3.15;;;;;;;;;;5098496;28;20033;-60
2021/10/08 01:14:50;;;;;;;5.75;4.80;;;;;;;;;;5098787;28;20022;-61
2021/10/08 01:17:17;;;;;;;4.82;4.32;;;;;;;;;;5098707;28;20487;-61
2021/10/08 01:19:44;;;;;;;11.88;3.75;;;;;;;;;;5118582;27;20062;-60
2021/10/08 01:22:10;;;;;;;12.60;3.47;;;;;;;;;;5134300;27;20031;-60
2021/10/08 01:24:35;;;;;;;4.40;3.17;;;;;;;;;;5134370;27;20016;-60
2021/10/08 01:27:03;;;;;;;10.35;3.53;;;;;;;;;;5036748;27;20034;-60
2021/10/08 01:29:29;;;;;;;5.65;3.90;;;;;;;;;;5030380;28;20367;-60
2021/10/08 01:31:55;;;;;;;8.35;3.30;;;;;;;;;;5029297;28;20117;-60
2021/10/08 01:34:21;;;;;;;5.63;3.17;;;;;;;;;;5030133;28;20511;-61
2021/10/08 01:36:47;;;;;;;8.38;3.42;;;;;;;;;;5029881;28;20025;-60
2021/10/08 01:39:13;;;;;;;8.38;3.50;;;;;;;;;;5030407;28;20094;-60
2021/10/08 01:41:39;;;;;;;4.63;4.10;;;;;;;;;;5028688;28;20079;-60
2021/10/08 01:44:05;;;;;;;6.25;3.63;;;;;;;;;;5029867;28;20038;-60
2021/10/08 01:46:31;;;;;;;4.70;3.50;;;;;;;;;;5030230;28;20029;-61
2021/10/08 01:48:57;;;;;;;8.10;3.72;;;;;;;;;;5029947;28;20036;-60
2021/10/08 01:51:23;;;;;;;9.25;3.88;;;;;;;;;;5029894;28;20036;-60
2021/10/08 01:53:49;;;;;;;6.80;3.75;;;;;;;;;;5043535;27;20030;-60
2021/10/08 01:56:15;;;;;;;9.63;3.72;;;;;;;;;;5029653;28;20029;-60
2021/10/08 01:58:41;;;;;;;12.00;3.97;;;;;;;;;;5036425;28;20468;-60
2021/10/08 02:01:07;;;;;;;4.55;3.80;;;;;;;;;;5049866;28;20043;-60
2021/10/08 02:03:34;;;;;;;7.43;3.88;;;;;;;;;;5049920;28;20040;-62
2021/10/08 02:06:00;;;;;;;3.92;3.47;;;;;;;;;;5042780;28;20016;-60
2021/10/08 02:08:26;;;;;;;9.73;4.32;;;;;;;;;;5029863;28;20061;-60
2021/10/08 02:10:52;;;;;;;4.70;3.90;;;;;;;;;;5097910;28;20057;-60
2021/10/08 02:13:19;;;;;;;6.22;3.72;;;;;;;;;;5030002;28;20125;-60
2021/10/08 02:15:46;;;;;;;6.65;4.30;;;;;;;;;;5012997;28;20074;-59
2021/10/08 02:18:12;;;;;;;5.57;4.38;;;;;;;;;;5099365;27;20030;-60
2021/10/08 02:20:38;;;;;;;5.03;3.95;;;;;;;;;;5133087;27;20563;-60
2021/10/08 02:23:04;;;;;;;5.57;4.38;;;;;;;;;;5133250;27;20043;-60
2021/10/08 02:25:30;;;;;;;7.78;4.65;;;;;;;;;;5132967;27;20024;-60
2021/10/08 02:27:56;;;;;;;4.20;3.78;;;;;;;;;;5115007;28;20160;-60
2021/10/08 02:30:22;;;;;;;4.65;4.03;;;;;;;;;;5133729;28;20454;-59
2021/10/08 02:32:48;;;;;;;8.20;4.10;;;;;;;;;;5016586;28;20046;-59
2021/10/08 02:35:14;;;;;;;9.98;4.25;;;;;;;;;;5009453;28;20029;-60
2021/10/08 02:37:41;;;;;;;6.95;4.00;;;;;;;;;;5009585;28;20081;-60
2021/10/08 02:40:07;;;;;;;7.18;4.18;;;;;;;;;;5009555;28;20026;-60
2021/10/08 02:42:34;;;;;;;11.48;4.40;;;;;;;;;;5010231;28;20046;-61
2021/10/08 02:45:00;;;;;;;5.90;4.43;;;;;;;;;;5012931;28;20022;-60
2021/10/08 02:47:26;;;;;;;9.88;4.38;;;;;;;;;;5081318;28;20073;-60
2021/10/08 02:49:52;;;;;;;10.68;4.25;;;;;;;;;;5080682;28;20072;-60
2021/10/08 02:52:18;;;;;;;6.68;4.32;;;;;;;;;;5026970;27;20022;-60
2021/10/08 02:54:44;;;;;;;11.70;4.15;;;;;;;;;;5101512;28;20445;-60
2021/10/08 02:57:10;;;;;;;4.85;4.03;;;;;;;;;;5032777;28;20025;-60
2021/10/08 02:59:35;;;;;;;5.43;4.57;;;;;;;;;;5032702;28;20030;-60
2021/10/08 03:02:01;;;;;;;5.20;3.80;;;;;;;;;;5032354;28;20108;-60
2021/10/08 03:04:27;;;;;;;6.55;4.30;;;;;;;;;;5032523;28;20026;-60
2021/10/08 03:06:56;;;;;;;5.95;4.20;;;;;;;;;;5025140;28;20466;-60
2021/10/08 03:09:22;;;;;;;7.35;4.25;;;;;;;;;;5012532;28;20026;-61
2021/10/08 03:11:48;;;;;;;6.70;4.70;;;;;;;;;;5012377;28;20030;-60
2021/10/08 03:14:14;;;;;;;4.55;4.07;;;;;;;;;;5012440;28;20029;-60
2021/10/08 03:16:40;;;;;;;6.25;4.22;;;;;;;;;;5012556;28;20034;-61
2021/10/08 03:19:06;;;;;;;5.13;4.10;;;;;;;;;;5086134;27;20015;-60
2021/10/08 03:21:32;;;;;;;4.60;3.75;;;;;;;;;;5135796;27;20478;-60
2021/10/08 03:23:58;;;;;;;10.82;4.50;;;;;;;;;;5031905;28;20045;-61
2021/10/08 03:26:24;;;;;;;6.03;4.25;;;;;;;;;;5032344;28;20068;-60
2021/10/08 03:28:50;;;;;;;14.32;4.85;;;;;;;;;;5101009;28;20029;-60
2021/10/08 03:31:20;;;;;;;12.43;4.38;;;;;;;;;;5031750;28;20029;-61
2021/10/08 03:33:46;;;;;;;8.23;4.03;;;;;;;;;;5099845;28;20050;-61
2021/10/08 03:36:25;;;;;;;11.55;4.30;;;;;;;;;;5031610;28;20504;-60
2021/10/08 03:38:51;;;;;;;11.30;4.40;;;;;;;;;;5013276;28;20022;-60
2021/10/08 03:41:19;;;;;;;7.22;4.35;;;;;;;;;;5012411;28;20534;-60
2021/10/08 03:43:45;;;;;;;6.13;4.30;;;;;;;;;;5012210;28;20385;-60
2021/10/08 03:46:12;;;;;;;8.70;3.95;;;;;;;;;;5012092;28;20022;-60
2021/10/08 03:49:39;;;;;;;5.80;3.95;;;;;;;;;;5012214;28;20026;-60
2021/10/08 03:51:35;;;;;;;4.65;4.00;;;;;;;;;;5020585;28;20030;-60
2021/10/08 03:54:02;;;;;;;15.43;4.13;;;;;;;;;;5113837;27;20027;-60
2021/10/08 03:56:28;;;;;;;5.35;4.03;;;;;;;;;;5016266;27;20052;-61
2021/10/08 03:58:55;;;;;;;5.63;4.22;;;;;;;;;;5021530;28;20415;-60
2021/10/08 04:01:21;;;;;;;10.02;4.03;;;;;;;;;;5031843;28;20061;-60
2021/10/08 04:03:47;;;;;;;4.93;4.25;;;;;;;;;;5031691;28;20022;-60
2021/10/08 04:06:13;;;;;;;9.48;4.20;;;;;;;;;;5023197;28;20018;-60
2021/10/08 04:08:39;;;;;;;5.78;3.88;;;;;;;;;;5011898;28;20030;-60
2021/10/08 04:11:05;;;;;;;6.43;4.30;;;;;;;;;;5085098;28;20021;-60
2021/10/08 04:13:31;;;;;;;5.68;3.53;;;;;;;;;;5031587;28;20030;-60
2021/10/08 04:15:57;;;;;;;7.25;3.63;;;;;;;;;;5031150;28;20034;-60
2021/10/08 04:18:23;;;;;;;11.95;3.70;;;;;;;;;;5062518;27;20026;-60
2021/10/08 04:20:50;;;;;;;8.45;3.83;;;;;;;;;;5135364;27;20431;-60
2021/10/08 04:23:16;;;;;;;6.35;3.38;;;;;;;;;;5135499;27;20043;-60
2021/10/08 04:25:42;;;;;;;5.53;3.83;;;;;;;;;;5117289;27;20023;-60
2021/10/08 04:28:08;;;;;;;5.65;3.90;;;;;;;;;;5122312;27;20019;-60
2021/10/08 04:30:34;;;;;;;7.90;3.83;;;;;;;;;;5031514;28;20438;-60
2021/10/08 04:33:00;;;;;;;4.22;3.60;;;;;;;;;;5099602;28;20128;-60
2021/10/08 04:35:27;;;;;;;6.32;3.30;;;;;;;;;;5031216;28;20101;-59
2021/10/08 04:37:53;;;;;;;3.80;3.40;;;;;;;;;;5030744;28;20082;-59
2021/10/08 04:40:19;;;;;;;6.15;3.70;;;;;;;;;;5031333;28;20026;-60
2021/10/08 04:42:45;;;;;;;7.90;3.60;;;;;;;;;;5030915;28;20041;-60
2021/10/08 04:45:11;;;;;;;3.47;3.15;;;;;;;;;;5030036;28;20053;-60
2021/10/08 04:47:37;;;;;;;3.53;3.20;;;;;;;;;;5031215;28;20109;-60
2021/10/08 04:50:03;;;;;;;3.95;3.25;;;;;;;;;;5030834;28;20033;-61
2021/10/08 04:52:29;;;;;;;3.80;3.20;;;;;;;;;;5030611;28;20030;-60
2021/10/08 04:54:55;;;;;;;7.80;3.20;;;;;;;;;;5031420;28;20025;-60
2021/10/08 04:57:21;;;;;;;3.50;3.20;;;;;;;;;;5030999;28;20342;-60
2021/10/08 04:59:47;;;;;;;5.75;3.55;;;;;;;;;;5030682;28;20111;-60
2021/10/08 05:02:13;;;;;;;6.93;2.95;;;;;;;;;;5030858;28;20041;-60
2021/10/08 05:04:39;;;;;;;3.40;3.10;;;;;;;;;;5029888;28;20403;-60
2021/10/08 05:07:05;;;;;;;4.38;3.20;;;;;;;;;;5099499;28;20029;-60
2021/10/08 05:09:31;;;;;;;11.75;3.28;;;;;;;;;;5099492;28;20052;-60
2021/10/08 05:11:57;;;;;;;7.38;2.63;;;;;;;;;;5030408;28;20064;-60
2021/10/08 05:14:23;;;;;;;9.38;3.25;;;;;;;;;;5030756;28;20025;-61
2021/10/08 05:16:49;;;;;;;8.77;2.78;;;;;;;;;;5030273;28;20410;-60
2021/10/08 05:19:15;;;;;;;9.88;3.00;;;;;;;;;;5056472;27;20029;-60
2021/10/08 05:21:41;;;;;;;6.65;3.00;;;;;;;;;;5030399;28;20025;-60
2021/10/08 05:24:07;;;;;;;7.05;3.70;;;;;;;;;;5089990;27;20046;-60
2021/10/08 05:26:33;;;;;;;6.97;3.55;;;;;;;;;;5128160;27;20030;-59
2021/10/08 05:28:59;;;;;;;4.13;3.72;;;;;;;;;;5084036;27;20102;-60
2021/10/08 05:31:25;;;;;;;6.57;3.53;;;;;;;;;;5067529;27;20496;-60
2021/10/08 05:33:51;;;;;;;7.75;3.90;;;;;;;;;;5011050;28;20048;-61
2021/10/08 05:36:18;;;;;;;20.15;4.03;;;;;;;;;;5096486;28;20029;-61
2021/10/08 05:38:44;;;;;;;9.15;4.40;;;;;;;;;;5028858;28;20017;-60
2021/10/08 05:41:10;;;;;;;17.20;6.05;;;;;;;;;;5080219;28;20385;-60
2021/10/08 05:43:36;;;;;;;19.85;4.78;;;;;;;;;;5078624;28;20079;-61
2021/10/08 05:46:02;;;;;;;11.73;5.07;;;;;;;;;;5011132;28;20030;-60
2021/10/08 05:48:28;;;;;;;28.75;6.22;;;;;;;;;;5011061;28;20030;-61
2021/10/08 05:50:54;;;;;;;18.13;4.55;;;;;;;;;;5011184;28;20046;-60
2021/10/08 05:53:20;;;;;;;27.92;5.78;;;;;;;;;;5025904;27;20057;-61
2021/10/08 05:55:46;;;;;;;19.52;6.43;;;;;;;;;;5030214;28;20032;-60
2021/10/08 05:58:12;;;;;;;28.52;4.50;;;;;;;;;;5029790;28;20089;-61
2021/10/08 06:00:38;;;;;;;23.13;4.35;;;;;;;;;;5024911;28;20025;-61
2021/10/08 06:03:05;;;;;;;21.75;4.30;;;;;;;;;;5010606;28;20056;-60
2021/10/08 06:05:34;;;;;;;17.17;4.82;;;;;;;;;;5010486;28;20026;-61
2021/10/08 06:08:01;;;;;;;21.55;4.10;;;;;;;;;;5078313;28;20022;-59
2021/10/08 06:10:27;;;;;;;16.05;4.30;;;;;;;;;;5017308;28;20545;-60
2021/10/08 06:12:52;;;;;;;15.20;3.95;;;;;;;;;;5030262;28;20097;-59
2021/10/08 06:15:18;;;;;;;14.45;3.72;;;;;;;;;;5030053;28;20399;-59
2021/10/08 06:17:45;;;;;;;10.10;3.78;;;;;;;;;;5032167;28;20028;-60
2021/10/08 06:20:11;;;;;;;15.45;3.75;;;;;;;;;;5133969;27;20047;-59
2021/10/08 06:22:39;;;;;;;22.83;3.80;;;;;;;;;;5133467;27;20522;-60
2021/10/08 06:25:06;;;;;;;15.85;3.65;;;;;;;;;;5133585;27;20412;-59
2021/10/08 06:27:32;;;;;;;10.15;3.42;;;;;;;;;;5096397;28;20086;-59
2021/10/08 06:29:58;;;;;;;6.65;3.58;;;;;;;;;;5029698;28;20473;-59
2021/10/08 06:32:24;;;;;;;8.88;3.40;;;;;;;;;;5097684;28;20045;-60
2021/10/08 06:34:50;;;;;;;15.10;3.40;;;;;;;;;;5029674;28;20116;-60
2021/10/08 06:37:16;;;;;;;8.10;3.40;;;;;;;;;;5029544;28;20029;-59
2021/10/08 06:39:43;;;;;;;9.73;3.33;;;;;;;;;;5029814;28;20033;-63
2021/10/08 06:42:09;;;;;;;8.43;3.40;;;;;;;;;;5029310;28;20106;-62
2021/10/08 06:44:34;;;;;;;12.70;3.42;;;;;;;;;;5028306;28;20116;-64
2021/10/08 06:47:01;;;;;;;13.23;3.40;;;;;;;;;;5097882;28;20034;-59
2021/10/08 06:49:27;;;;;;;8.77;3.20;;;;;;;;;;5029334;28;20032;-59
2021/10/08 06:51:53;;;;;;;13.48;4.45;;;;;;;;;;5029434;28;20029;-59
2021/10/08 06:54:19;;;;;;;4.68;3.15;;;;;;;;;;5127790;28;20027;-59
2021/10/08 06:56:45;;;;;;;7.88;3.17;;;;;;;;;;5115155;28;20038;-60
2021/10/08 06:59:11;;;;;;;11.63;3.58;;;;;;;;;;5070407;28;20046;-59
2021/10/08 07:01:37;;;;;;;5.28;3.10;;;;;;;;;;5077539;28;20029;-59
2021/10/08 07:04:03;;;;;;;3.42;3.10;;;;;;;;;;5090373;28;20037;-59
2021/10/08 07:06:29;;;;;;;4.03;3.05;;;;;;;;;;5078030;28;20489;-59
2021/10/08 07:08:56;;;;;;;4.65;2.95;;;;;;;;;;5090169;28;20357;-59
2021/10/08 07:11:22;;;;;;;10.88;3.42;;;;;;;;;;5081700;28;20026;-59
2021/10/08 07:13:50;;;;;;;5.53;3.10;;;;;;;;;;5084917;28;20021;-59
2021/10/08 07:16:16;;;;;;;7.80;3.08;;;;;;;;;;5073889;28;20074;-59
2021/10/08 07:18:54;;;;;;;3.38;3.08;;;;;;;;;;5089906;28;20025;-59
2021/10/08 07:21:20;;;;;;;4.00;3.20;;;;;;;;;;5084430;28;20031;-61
2021/10/08 07:23:47;;;;;;;6.38;3.00;;;;;;;;;;5083543;28;20018;-59
2021/10/08 07:26:13;;;;;;;4.05;3.20;;;;;;;;;;5073886;28;20080;-59
2021/10/08 07:28:39;;;;;;;6.28;3.10;;;;;;;;;;5040472;28;20440;-59
2021/10/08 07:31:07;;;;;;;6.65;3.33;;;;;;;;;;5087600;27;20062;-59
2021/10/08 07:33:34;;;;;;;3.90;3.05;;;;;;;;;;5105404;27;20043;-60
2021/10/08 07:36:00;;;;;;;4.10;3.03;;;;;;;;;;5089649;27;20027;-59
2021/10/08 07:38:26;;;;;;;3.25;2.60;;;;;;;;;;5081482;27;20026;-60
2021/10/08 07:40:53;;;;;;;5.50;3.45;;;;;;;;;;5083008;27;20240;-61
2021/10/08 07:43:18;;;;;;;4.45;2.92;;;;;;;;;;5046608;27;20040;-59
2021/10/08 07:45:44;;;;;;;3.45;3.00;;;;;;;;;;5032064;28;20022;-59
2021/10/08 07:48:10;;;;;;;4.72;3.05;;;;;;;;;;5030815;28;20071;-61
2021/10/08 07:50:36;;;;;;;5.82;3.03;;;;;;;;;;5032122;28;20029;-59
2021/10/08 07:53:03;;;;;;;3.75;2.80;;;;;;;;;;5044974;27;20070;-61
2021/10/08 07:55:29;;;;;;;3.20;2.90;;;;;;;;;;5031996;28;20025;-60
2021/10/08 07:57:55;;;;;;;3.33;2.70;;;;;;;;;;5031793;28;20025;-58
2021/10/08 08:00:21;;;;;;;3.28;2.80;;;;;;;;;;5031712;28;20354;-59
2021/10/08 08:02:46;;;;;;;3.38;2.80;;;;;;;;;;5031699;28;20116;-61
2021/10/08 08:05:13;;;;;;;3.38;2.97;;;;;;;;;;5030434;28;20024;-59
2021/10/08 08:07:39;;;;;;;3.67;2.97;;;;;;;;;;5012063;28;20032;-63
2021/10/08 08:10:06;;;;;;;3.25;2.70;;;;;;;;;;5012023;28;20033;-60
2021/10/08 08:12:32;;;;;;;4.20;3.10;;;;;;;;;;5011847;28;20030;-61
2021/10/08 08:14:58;;;;;;;3.30;3.00;;;;;;;;;;5011990;28;20033;-61
2021/10/08 08:17:24;;;;;;;3.03;2.60;;;;;;;;;;5011781;28;20362;-59
2021/10/08 08:19:50;;;;;;;3.00;2.80;;;;;;;;;;5122965;27;20102;-59
2021/10/08 08:22:16;;;;;;;5.97;3.50;;;;;;;;;;5035301;27;20117;-58
2021/10/08 08:24:42;;;;;;;3.03;2.83;;;;;;;;;;5011846;28;20063;-59
2021/10/08 08:27:08;;;;;;;3.58;2.88;;;;;;;;;;5012204;28;20038;-59
2021/10/08 08:29:34;;;;;;;4.53;2.90;;;;;;;;;;5011530;28;20029;-59
2021/10/08 08:32:00;;;;;;;3.42;3.13;;;;;;;;;;5011396;28;20105;-61
2021/10/08 08:34:27;;;;;;;3.13;2.83;;;;;;;;;;5020449;28;20198;-59
2021/10/08 08:36:53;;;;;;;3.33;3.03;;;;;;;;;;5075370;27;20025;-59
2021/10/08 08:39:20;;;;;;;3.25;2.92;;;;;;;;;;5075417;27;20086;-59
2021/10/08 08:41:46;;;;;;;5.20;3.03;;;;;;;;;;5091416;27;20021;-59
2021/10/08 08:44:12;;;;;;;4.97;4.47;;;;;;;;;;5045903;27;20034;-60
2021/10/08 08:46:38;;;;;;;5.85;4.75;;;;;;;;;;5084490;27;20018;-60
2021/10/08 08:49:05;;;;;;;6.53;5.05;;;;;;;;;;5077051;27;20033;-58
2021/10/08 08:51:32;;;;;;;5.32;4.10;;;;;;;;;;5093521;27;20064;-59
2021/10/08 08:54:01;;;;;;;6.57;4.75;;;;;;;;;;5064264;27;20033;-59
2021/10/08 08:56:27;;;;;;;8.32;5.38;;;;;;;;;;5019053;28;20045;-59
2021/10/08 08:59:07;;;;;;;4.80;4.30;;;;;;;;;;5020461;28;20567;-60
2021/10/08 09:01:33;;;;;;;6.03;5.20;;;;;;;;;;5031039;28;20065;-60
2021/10/08 09:04:11;;;;;;;5.60;4.63;;;;;;;;;;5031188;28;20026;-59
2021/10/08 09:06:38;;;;;;;5.63;4.60;;;;;;;;;;5093849;28;20022;-59
2021/10/08 09:09:15;;;;;;;6.65;5.53;;;;;;;;;;5011007;28;20025;-59
2021/10/08 09:11:41;;;;;;;6.80;5.63;;;;;;;;;;5011042;28;20113;-59
2021/10/08 09:14:33;;;;;;;9.23;6.13;;;;;;;;;;5048939;27;20026;-60
2021/10/08 09:17:16;;;;;;;12.30;6.63;;;;;;;;;;5081944;27;20033;-60
2021/10/08 09:19:46;;;;;;;9.65;6.53;;;;;;;;;;5097364;27;20548;-59
2021/10/08 09:22:13;;;;;;;8.38;5.45;;;;;;;;;;5085180;27;20038;-60
2021/10/08 09:24:39;;;;;;;13.55;8.20;;;;;;;;;;5098551;28;20022;-59
2021/10/08 09:27:08;;;;;;;10.40;6.10;;;;;;;;;;5030554;28;20342;-61
2021/10/08 09:29:35;;;;;;;8.77;6.57;;;;;;;;;;5097757;28;20029;-60
2021/10/08 09:32:01;;;;;;;7.80;5.70;;;;;;;;;;5030443;28;20039;-58
2021/10/08 09:34:27;;;;;;;7.10;5.63;;;;;;;;;;5030583;28;20030;-59
2021/10/08 09:37:05;;;;;;;8.88;6.20;;;;;;;;;;5030616;28;20033;-60
2021/10/08 09:39:33;;;;;;;10.57;7.60;;;;;;;;;;5030729;28;20108;-59
2021/10/08 09:42:03;;;;;;;9.55;6.68;;;;;;;;;;5030669;28;20036;-61
2021/10/08 09:44:30;;;;;;;10.65;7.18;;;;;;;;;;5015618;28;20079;-61
2021/10/08 09:47:14;;;;;;;9.80;7.57;;;;;;;;;;5010409;28;20029;-59
2021/10/08 09:49:41;;;;;;;9.60;7.07;;;;;;;;;;5078336;28;20033;-59
2021/10/08 09:52:19;;;;;;;13.32;9.07;;;;;;;;;;5014245;27;20370;-58
2021/10/08 09:54:52;;;;;;;13.80;8.40;;;;;;;;;;5030034;28;20024;-58
2021/10/08 09:57:21;;;;;;;12.10;7.85;;;;;;;;;;5030147;28;20032;-59
2021/10/08 09:59:48;;;;;;;11.02;7.80;;;;;;;;;;5018709;28;20029;-60
2021/10/08 10:02:15;;;;;;;10.40;7.53;;;;;;;;;;5010012;28;20028;-58
2021/10/08 10:04:55;;;;;;;13.10;8.13;;;;;;;;;;5010576;28;20029;-59
2021/10/08 10:07:22;;;;;;;12.52;8.63;;;;;;;;;;5027528;28;20063;-59
2021/10/08 10:09:48;;;;;;;12.93;8.65;;;;;;;;;;5097405;28;20162;-61
2021/10/08 10:12:16;;;;;;;13.30;8.32;;;;;;;;;;5029782;28;20063;-60
2021/10/08 10:14:43;;;;;;;12.57;8.55;;;;;;;;;;5029905;28;20104;-59
2021/10/08 10:17:09;;;;;;;13.65;9.35;;;;;;;;;;5028557;28;20396;-59
2021/10/08 10:19:38;;;;;;;17.30;9.20;;;;;;;;;;5112336;27;20426;-59
2021/10/08 10:22:04;;;;;;;19.15;9.50;;;;;;;;;;5133845;27;20038;-59
2021/10/08 10:24:31;;;;;;;12.82;8.77;;;;;;;;;;5133858;27;20023;-60
2021/10/08 10:26:57;;;;;;;14.35;9.55;;;;;;;;;;5133505;27;20023;-59
2021/10/08 10:29:23;;;;;;;14.98;9.40;;;;;;;;;;5133640;27;20105;-61
2021/10/08 10:31:50;;;;;;;13.38;9.75;;;;;;;;;;5097598;28;20632;-59
2021/10/08 10:34:16;;;;;;;16.42;9.73;;;;;;;;;;5009866;28;20048;-59
2021/10/08 10:36:43;;;;;;;14.48;9.65;;;;;;;;;;5010110;28;20141;-58
2021/10/08 10:39:13;;;;;;;15.88;10.00;;;;;;;;;;5009760;28;20469;-61
2021/10/08 10:41:40;;;;;;;16.42;10.00;;;;;;;;;;5077317;28;20025;-60
2021/10/08 10:44:14;;;;;;;14.43;9.65;;;;;;;;;;5077728;28;20138;-59
2021/10/08 10:46:45;;;;;;;15.43;10.20;;;;;;;;;;5012537;28;20464;-60
2021/10/08 10:52:01;;;;;;;17.70;10.10;;;;;;;;;;5029734;28;20098;-59
2021/10/08 10:54:52;;;;;;;16.58;11.13;;;;;;;;;;5027487;28;20055;-62
2021/10/08 10:57:30;;;;;;;16.27;10.77;;;;;;;;;;5029761;28;20045;-62
2021/10/08 11:00:15;;;;;;;16.45;10.63;;;;;;;;;;5097657;28;20041;-60
2021/10/08 11:02:41;;;;;;;16.42;10.85;;;;;;;;;;5018996;28;20460;-61
2021/10/08 11:05:19;;;;;;;17.33;10.98;;;;;;;;;;5012921;28;20022;-59
2021/10/08 11:08:03;;;;;;;19.27;11.23;;;;;;;;;;5013431;28;20038;-59
2021/10/08 11:10:30;;;;;;;18.35;10.88;;;;;;;;;;5012966;28;20034;-60
2021/10/08 11:13:15;;;;;;;19.60;11.95;;;;;;;;;;5012805;28;20389;-59
2021/10/08 11:15:51;;;;;;;19.75;11.43;;;;;;;;;;5012722;28;20018;-61
2021/10/08 11:18:34;;;;;;;17.88;12.50;;;;;;;;;;5044508;27;20438;-58
2021/10/08 11:21:00;;;;;;;21.20;12.40;;;;;;;;;;5065149;27;20079;-59
2021/10/08 11:23:27;;;;;;;20.00;12.13;;;;;;;;;;5032474;28;20033;-58
2021/10/08 11:25:58;;;;;;;18.10;12.18;;;;;;;;;;5032191;28;20044;-60
2021/10/08 11:28:28;;;;;;;21.23;13.73;;;;;;;;;;5032374;28;20460;-59
2021/10/08 11:30:55;;;;;;;21.92;14.35;;;;;;;;;;5032321;28;20029;-59
2021/10/08 11:33:38;;;;;;;20.58;13.65;;;;;;;;;;5032198;28;20045;-59
2021/10/08 11:36:04;;;;;;;;;;;;;;;;;;5031344;28;20030;-61
2021/10/08 11:38:30;;;;;;;23.50;14.05;;;;;;;;;;5032320;28;19909;-61
2021/10/08 11:40:56;;;;;;;23.45;14.20;;;;;;;;;;5031961;28;20026;-61
2021/10/08 11:43:26;;;;;;;21.25;13.73;;;;;;;;;;5032230;28;20473;-61
2021/10/08 11:46:02;;;;;;;21.45;13.60;;;;;;;;;;5100697;28;20022;-61
2021/10/08 11:49:25;;;;;;;23.00;14.35;;;;;;;;;;5032217;28;20032;-62
2021/10/08 11:51:27;;;;;;;23.98;14.65;;;;;;;;;;5036945;28;20098;-62
2021/10/08 11:53:57;;;;;;;21.95;14.65;;;;;;;;;;5107476;27;20122;-61
2021/10/08 11:56:24;;;;;;;25.35;15.43;;;;;;;;;;5136521;27;20034;-59
2021/10/08 11:58:55;;;;;;;24.52;15.55;;;;;;;;;;5088787;27;20033;-59
2021/10/08 12:01:22;;;;;;;21.92;14.57;;;;;;;;;;5031777;28;20033;-59
2021/10/08 12:03:48;;;;;;;25.77;16.45;;;;;;;;;;5031832;28;20040;-60
2021/10/08 12:06:20;;;;;;;21.85;14.60;;;;;;;;;;5031734;28;20025;-60
2021/10/08 12:08:46;;;;;;;24.58;15.73;;;;;;;;;;5030709;28;20433;-61
2021/10/08 12:11:15;;;;;;;23.73;14.45;;;;;;;;;;5048974;27;20031;-61
2021/10/08 12:13:53;;;;;;;25.02;14.90;;;;;;;;;;5071848;27;20019;-62
2021/10/08 12:16:20;;;;;;;27.48;15.75;;;;;;;;;;5098382;27;20423;-61
2021/10/08 12:19:04;;;;;;;23.25;14.85;;;;;;;;;;5078748;27;20211;-59
2021/10/08 12:21:38;;;;;;;25.75;16.58;;;;;;;;;;5135732;27;20062;-60
2021/10/08 12:24:09;;;;;;;23.42;16.20;;;;;;;;;;5113999;27;20031;-59
2021/10/08 12:26:37;;;;;;;25.55;17.27;;;;;;;;;;5115792;27;20027;-60
2021/10/08 12:29:06;;;;;;;20.27;14.30;;;;;;;;;;5091454;27;20027;-61
2021/10/08 12:31:48;;;;;;;25.27;15.55;;;;;;;;;;5106601;28;20062;-60
2021/10/08 12:34:14;;;;;;;24.23;16.33;;;;;;;;;;5083791;27;20489;-62
2021/10/08 12:36:40;;;;;;;22.83;16.20;;;;;;;;;;5086732;27;20021;-59
2021/10/08 12:39:07;;;;;;;20.73;13.75;;;;;;;;;;5089148;27;20030;-61
2021/10/08 12:41:41;;;;;;;20.88;13.60;;;;;;;;;;5105980;27;20025;-61
2021/10/08 12:44:11;;;;;;;21.27;14.20;;;;;;;;;;5075070;27;20048;-62
2021/10/08 12:46:41;;;;;;;19.98;13.80;;;;;;;;;;5080831;27;20039;-61
2021/10/08 12:49:07;;;;;;;20.75;13.98;;;;;;;;;;5076894;27;20021;-60
2021/10/08 12:51:46;;;;;;;22.40;13.95;;;;;;;;;;5077652;27;20032;-60
2021/10/08 12:54:19;;;;;;;20.33;13.80;;;;;;;;;;5072228;27;20026;-62
2021/10/08 12:56:46;;;;;;;21.25;13.88;;;;;;;;;;5083016;27;20065;-59
2021/10/08 12:59:13;;;;;;;23.08;15.57;;;;;;;;;;5084446;27;20019;-60
2021/10/08 13:01:53;;;;;;;21.10;13.82;;;;;;;;;;5128665;27;20023;-60
2021/10/08 13:04:20;;;;;;;19.30;12.80;;;;;;;;;;5135139;27;20058;-59
2021/10/08 13:06:46;;;;;;;22.73;13.65;;;;;;;;;;5068070;27;20033;-60
2021/10/08 13:09:15;;;;;;;20.90;13.18;;;;;;;;;;5031083;28;20026;-60
2021/10/08 13:11:43;;;;;;;19.58;13.10;;;;;;;;;;5041598;27;20142;-59
2021/10/08 13:14:17;;;;;;;18.27;13.15;;;;;;;;;;5029276;28;20061;-62
2021/10/08 13:16:43;;;;;;;18.30;12.50;;;;;;;;;;5030767;28;20026;-61
2021/10/08 13:19:26;;;;;;;20.55;13.50;;;;;;;;;;5030650;28;20028;-59
2021/10/08 13:21:52;;;;;;;21.40;14.35;;;;;;;;;;5098819;28;20038;-61
2021/10/08 13:24:18;;;;;;;18.75;12.52;;;;;;;;;;5030659;28;20033;-63
2021/10/08 13:26:44;;;;;;;19.52;12.75;;;;;;;;;;5029819;28;20025;-59
2021/10/08 13:29:09;;;;;;;19.63;13.60;;;;;;;;;;5030323;28;20078;-60
2021/10/08 13:31:35;;;;;;;18.90;13.25;;;;;;;;;;5029512;28;20026;-60
2021/10/08 13:34:01;;;;;;;18.73;13.05;;;;;;;;;;5030340;28;20045;-59
2021/10/08 13:36:27;;;;;;;19.35;13.23;;;;;;;;;;5098698;28;20021;-61
2021/10/08 13:38:53;;;;;;;19.42;13.23;;;;;;;;;;5030331;28;20102;-60
2021/10/08 13:41:19;;;;;;;16.92;12.88;;;;;;;;;;5030523;28;20030;-59
2021/10/08 13:43:45;;;;;;;18.90;12.20;;;;;;;;;;5030073;28;20364;-60
2021/10/08 13:46:11;;;;;;;18.67;12.13;;;;;;;;;;5028944;28;20034;-60
2021/10/08 13:48:37;;;;;;;16.13;12.40;;;;;;;;;;5097989;28;20092;-61
2021/10/08 13:51:04;;;;;;;15.57;11.20;;;;;;;;;;5098138;28;20474;-62
2021/10/08 13:53:30;;;;;;;15.25;11.75;;;;;;;;;;5115346;27;20106;-59
2021/10/08 13:55:56;;;;;;;15.30;11.23;;;;;;;;;;5133876;27;20771;-61
2021/10/08 13:58:22;;;;;;;20.13;11.93;;;;;;;;;;5107055;27;20037;-59
2021/10/08 14:00:52;;;;;;;28.30;11.73;;;;;;;;;;5029903;28;20365;-60
2021/10/08 14:06:16;;;;;;;29.48;12.40;;;;;;;;;;5015568;28;20032;-60
2021/10/08 14:08:48;;;;;;;28.38;11.50;;;;;;;;;;5098140;28;20048;-59
2021/10/08 14:11:14;;;;;;;25.05;11.55;;;;;;;;;;5029737;28;20473;-61
2021/10/08 14:13:40;;;;;;;36.88;12.60;;;;;;;;;;5029629;28;20037;-58
2021/10/08 14:16:06;;;;;;;27.55;11.35;;;;;;;;;;5029583;28;20025;-62
2021/10/08 14:18:32;;;;;;;31.92;12.20;;;;;;;;;;5114784;27;20098;-59
2021/10/08 14:20:58;;;;;;;35.60;12.50;;;;;;;;;;5046464;27;20120;-60
2021/10/08 14:23:24;;;;;;;30.77;12.27;;;;;;;;;;5029491;28;20045;-62
2021/10/08 14:25:51;;;;;;;39.08;13.20;;;;;;;;;;5029593;28;20392;-59
2021/10/08 14:28:17;;;;;;;40.53;13.13;;;;;;;;;;5029435;28;20029;-61
2021/10/08 14:30:43;;;;;;;35.20;12.18;;;;;;;;;;5029468;28;20383;-60
2021/10/08 14:33:09;;;;;;;30.42;12.35;;;;;;;;;;5029277;28;20465;-60
2021/10/08 14:35:38;;;;;;;38.60;12.88;;;;;;;;;;5026181;28;20026;-62
2021/10/08 14:38:04;;;;;;;28.08;11.70;;;;;;;;;;5009622;28;20113;-60
2021/10/08 14:40:30;;;;;;;28.38;12.63;;;;;;;;;;5013580;28;20394;-59
2021/10/08 14:42:56;;;;;;;28.27;11.93;;;;;;;;;;5032262;27;20037;-62